Time;durP1;ratioP1;P1;durP2;ratioP2;P2;SDS_P1;SDS_P2;PMS_P1;PMS_P2;Temp;Humidity;BMP_temperature;BMP_pressure;BME280_temperature;BME280_humidity;BME280_pressure;Samples;Min_cycle;Max_cycle;Signal;HPM_P1;HPM_P2
2023/02/22 00:01:35;;;;;;;2.95;1.63;;;;;;;;;;4956688;28;20416;-49
2023/02/22 00:04:04;;;;;;;2.92;2.03;;;;;;;;;;4953646;28;20059;-46
2023/02/22 00:06:31;;;;;;;5.78;2.15;;;;;;;;;;4949827;28;20389;-49
2023/02/22 00:08:57;;;;;;;3.13;1.65;;;;;;;;;;4948595;28;20035;-46
2023/02/22 00:11:23;;;;;;;3.42;2.20;;;;;;;;;;4953641;28;20431;-47
2023/02/22 00:13:49;;;;;;;3.70;2.03;;;;;;;;;;4958906;28;20058;-47
2023/02/22 00:16:17;;;;;;;4.90;1.60;;;;;;;;;;4956137;28;20023;-47
2023/02/22 00:18:43;;;;;;;2.90;1.73;;;;;;;;;;4958969;28;20038;-46
2023/02/22 00:21:10;;;;;;;3.40;1.75;;;;;;;;;;4959312;28;20066;-48
2023/02/22 00:23:39;;;;;;;2.53;1.60;;;;;;;;;;4962298;28;20023;-47
2023/02/22 00:26:09;;;;;;;7.90;2.35;;;;;;;;;;4958210;28;20712;-46
2023/02/22 00:28:36;;;;;;;2.53;1.55;;;;;;;;;;4959009;28;20023;-46
2023/02/22 00:31:04;;;;;;;3.20;1.80;;;;;;;;;;4956679;28;20168;-46
2023/02/22 00:33:31;;;;;;;3.08;1.90;;;;;;;;;;4960184;28;20031;-49
2023/02/22 00:35:57;;;;;;;2.35;1.50;;;;;;;;;;4953076;29;20107;-50
2023/02/22 00:38:23;;;;;;;3.50;1.55;;;;;;;;;;4954570;29;20039;-49
2023/02/22 00:40:49;;;;;;;2.70;1.70;;;;;;;;;;4952780;29;20172;-48
2023/02/22 00:43:15;;;;;;;2.28;1.42;;;;;;;;;;4954321;29;20531;-47
2023/02/22 00:45:41;;;;;;;2.70;1.45;;;;;;;;;;4952218;28;20023;-47
2023/02/22 00:48:08;;;;;;;2.33;1.27;;;;;;;;;;4952483;28;20034;-51
2023/02/22 00:50:34;;;;;;;3.15;1.60;;;;;;;;;;4953903;28;20177;-46
2023/02/22 00:53:02;;;;;;;2.20;1.40;;;;;;;;;;4952984;29;20468;-46
2023/02/22 00:55:32;;;;;;;2.90;1.65;;;;;;;;;;4953374;29;20507;-47
2023/02/22 00:57:58;;;;;;;4.20;1.80;;;;;;;;;;4953219;29;20036;-46
2023/02/22 01:00:42;;;;;;;3.35;1.80;;;;;;;;;;4951119;29;20395;-46
2023/02/22 01:03:09;;;;;;;3.45;1.70;;;;;;;;;;4953568;29;20027;-46
2023/02/22 01:05:37;;;;;;;2.20;1.58;;;;;;;;;;4951504;28;20086;-45
2023/02/22 01:08:05;;;;;;;1.58;1.15;;;;;;;;;;4952813;28;20054;-46
2023/02/22 01:10:31;;;;;;;2.53;1.55;;;;;;;;;;4962233;28;20054;-46
2023/02/22 01:12:58;;;;;;;2.60;1.45;;;;;;;;;;4962773;28;20447;-46
2023/02/22 01:15:27;;;;;;;2.83;1.55;;;;;;;;;;4972443;28;20033;-46
2023/02/22 01:17:53;;;;;;;2.88;1.60;;;;;;;;;;4971442;28;20035;-46
2023/02/22 01:20:21;;;;;;;3.35;1.35;;;;;;;;;;4972519;28;20027;-47
2023/02/22 01:22:48;;;;;;;2.28;1.48;;;;;;;;;;4972316;28;20030;-47
2023/02/22 01:25:19;;;;;;;2.08;1.40;;;;;;;;;;4972195;28;20034;-50
2023/02/22 01:27:45;;;;;;;2.88;1.73;;;;;;;;;;4971169;28;20022;-46
2023/02/22 01:30:12;;;;;;;3.83;1.77;;;;;;;;;;4971635;28;20097;-46
2023/02/22 01:32:40;;;;;;;3.10;1.63;;;;;;;;;;4972515;28;20050;-45
2023/02/22 01:35:07;;;;;;;2.40;1.48;;;;;;;;;;4970988;28;20101;-46
2023/02/22 01:37:36;;;;;;;1.98;1.65;;;;;;;;;;4971369;28;20038;-46
2023/02/22 01:40:06;;;;;;;2.95;1.77;;;;;;;;;;4967554;28;20027;-47
2023/02/22 01:42:32;;;;;;;2.15;1.23;;;;;;;;;;4968712;28;20015;-47
2023/02/22 01:45:17;;;;;;;2.63;1.52;;;;;;;;;;4965376;28;20066;-46
2023/02/22 01:47:42;;;;;;;1.92;1.20;;;;;;;;;;4967287;28;20022;-46
2023/02/22 01:50:09;;;;;;;2.00;1.40;;;;;;;;;;4966405;28;20041;-47
2023/02/22 01:52:36;;;;;;;3.05;1.40;;;;;;;;;;4969044;28;20033;-46
2023/02/22 01:55:02;;;;;;;2.55;1.70;;;;;;;;;;4965798;28;20464;-46
2023/02/22 01:57:32;;;;;;;3.83;1.95;;;;;;;;;;4968318;28;20503;-46
2023/02/22 02:00:01;;;;;;;2.15;1.33;;;;;;;;;;4966423;28;20062;-46
2023/02/22 02:02:27;;;;;;;2.03;1.50;;;;;;;;;;4969034;28;20354;-46
2023/02/22 02:04:55;;;;;;;2.95;1.50;;;;;;;;;;4969174;28;20109;-47
2023/02/22 02:07:22;;;;;;;2.85;1.63;;;;;;;;;;4965456;28;20023;-46
2023/02/22 02:09:48;;;;;;;2.45;1.60;;;;;;;;;;4968322;28;20042;-46
2023/02/22 02:12:15;;;;;;;3.83;1.70;;;;;;;;;;4966746;28;20055;-46
2023/02/22 02:14:42;;;;;;;2.30;1.45;;;;;;;;;;4952192;29;20027;-48
2023/02/22 02:17:09;;;;;;;3.08;1.70;;;;;;;;;;4951998;29;20030;-45
2023/02/22 02:19:41;;;;;;;2.50;1.88;;;;;;;;;;4955984;28;20023;-47
2023/02/22 02:22:24;;;;;;;2.50;1.20;;;;;;;;;;4952579;29;20027;-46
2023/02/22 02:24:50;;;;;;;2.17;1.25;;;;;;;;;;4946344;28;20046;-47
2023/02/22 02:27:17;;;;;;;1.83;1.20;;;;;;;;;;4952775;29;20023;-50
2023/02/22 02:29:59;;;;;;;2.55;1.75;;;;;;;;;;4958087;28;20623;-49
2023/02/22 02:32:52;;;;;;;2.95;1.65;;;;;;;;;;4951812;28;20592;-46
2023/02/22 02:35:20;;;;;;;2.75;1.50;;;;;;;;;;4952406;28;20035;-46
2023/02/22 02:38:04;;;;;;;2.33;1.50;;;;;;;;;;4952288;29;20050;-48
2023/02/22 02:40:30;;;;;;;2.03;1.48;;;;;;;;;;4949929;28;20034;-46
2023/02/22 02:43:11;;;;;;;2.70;1.23;;;;;;;;;;4951263;28;20480;-45
2023/02/22 02:45:59;;;;;;;3.17;1.33;;;;;;;;;;4951741;28;20074;-46
2023/02/22 02:48:27;;;;;;;2.03;1.42;;;;;;;;;;4950280;29;20031;-46
2023/02/22 02:50:55;;;;;;;4.20;1.30;;;;;;;;;;4951668;28;20036;-48
2023/02/22 02:53:22;;;;;;;3.20;1.65;;;;;;;;;;4952716;29;20028;-49
2023/02/22 02:55:48;;;;;;;2.30;1.52;;;;;;;;;;4951087;29;20075;-50
2023/02/22 02:58:20;;;;;;;3.28;1.70;;;;;;;;;;4952259;29;20031;-46
2023/02/22 03:00:46;;;;;;;1.85;1.30;;;;;;;;;;4950822;28;20357;-45
2023/02/22 03:03:23;;;;;;;2.53;1.50;;;;;;;;;;4951937;28;20063;-46
2023/02/22 03:05:58;;;;;;;2.65;1.48;;;;;;;;;;4951325;29;20488;-46
2023/02/22 03:08:30;;;;;;;2.75;1.50;;;;;;;;;;4954134;28;20058;-46
2023/02/22 03:11:05;;;;;;;2.72;1.42;;;;;;;;;;4953715;28;20032;-46
2023/02/22 03:13:54;;;;;;;2.45;1.33;;;;;;;;;;4968631;28;20058;-46
2023/02/22 03:16:20;;;;;;;2.08;1.30;;;;;;;;;;4951673;28;20035;-47
2023/02/22 03:19:05;;;;;;;4.20;1.65;;;;;;;;;;4967649;28;20479;-50
2023/02/22 03:21:33;;;;;;;2.13;1.52;;;;;;;;;;4951902;28;20039;-48
2023/02/22 03:24:10;;;;;;;2.05;1.40;;;;;;;;;;4958703;28;20531;-46
2023/02/22 03:26:41;;;;;;;1.65;1.30;;;;;;;;;;4962529;28;20023;-46
2023/02/22 03:29:09;;;;;;;2.63;1.40;;;;;;;;;;4958429;28;20901;-47
2023/02/22 03:31:37;;;;;;;3.50;2.08;;;;;;;;;;4959493;28;20035;-46
2023/02/22 03:34:09;;;;;;;2.45;1.40;;;;;;;;;;4957007;28;20027;-46
2023/02/22 03:36:38;;;;;;;2.00;1.70;;;;;;;;;;4956987;28;20031;-46
2023/02/22 03:39:06;;;;;;;2.58;1.63;;;;;;;;;;4959540;28;20031;-46
2023/02/22 03:41:37;;;;;;;2.35;1.40;;;;;;;;;;4960126;28;20042;-47
2023/02/22 03:44:11;;;;;;;3.25;1.50;;;;;;;;;;4961617;28;20112;-47
2023/02/22 03:46:39;;;;;;;2.42;1.50;;;;;;;;;;4960326;28;20380;-46
2023/02/22 03:49:10;;;;;;;2.30;1.65;;;;;;;;;;4957883;28;20090;-46
2023/02/22 03:51:38;;;;;;;2.60;1.70;;;;;;;;;;4964984;28;20035;-47
2023/02/22 03:54:05;;;;;;;1.60;1.30;;;;;;;;;;4960100;28;20027;-46
2023/02/22 03:56:35;;;;;;;3.63;1.55;;;;;;;;;;4954160;28;20102;-46
2023/02/22 03:59:10;;;;;;;2.15;1.27;;;;;;;;;;4947629;28;20050;-46
2023/02/22 04:01:36;;;;;;;3.05;1.20;;;;;;;;;;4955100;28;20035;-46
2023/02/22 04:04:02;;;;;;;2.60;1.83;;;;;;;;;;4956134;28;20035;-46
2023/02/22 04:06:28;;;;;;;3.22;1.90;;;;;;;;;;4960092;28;20476;-46
2023/02/22 04:08:55;;;;;;;2.70;1.40;;;;;;;;;;4955907;28;20070;-47
2023/02/22 04:11:21;;;;;;;1.88;1.30;;;;;;;;;;4959458;28;20042;-46
2023/02/22 04:13:47;;;;;;;2.90;1.92;;;;;;;;;;4966909;28;20055;-45
2023/02/22 04:16:13;;;;;;;1.58;1.17;;;;;;;;;;4974137;28;20472;-46
2023/02/22 04:18:39;;;;;;;2.47;1.50;;;;;;;;;;4974450;28;20364;-46
2023/02/22 04:21:05;;;;;;;1.95;1.30;;;;;;;;;;4970318;28;20723;-49
2023/02/22 04:23:31;;;;;;;2.75;1.60;;;;;;;;;;4973090;28;20105;-46
2023/02/22 04:25:57;;;;;;;2.25;1.60;;;;;;;;;;4972466;28;20110;-47
2023/02/22 04:28:23;;;;;;;2.63;1.67;;;;;;;;;;4973952;28;20035;-48
2023/02/22 04:30:49;;;;;;;1.25;1.15;;;;;;;;;;4970273;28;20122;-46
2023/02/22 04:33:15;;;;;;;1.73;1.35;;;;;;;;;;4973389;28;20019;-46
2023/02/22 04:35:41;;;;;;;1.98;0.98;;;;;;;;;;4972606;28;20030;-46
2023/02/22 04:38:08;;;;;;;2.90;1.50;;;;;;;;;;4971912;28;20075;-47
2023/02/22 04:40:34;;;;;;;4.05;1.73;;;;;;;;;;4972021;28;20031;-46
2023/02/22 04:43:00;;;;;;;1.75;1.25;;;;;;;;;;4972842;28;20081;-46
2023/02/22 04:45:26;;;;;;;2.35;1.70;;;;;;;;;;4972245;28;20018;-47
2023/02/22 04:47:52;;;;;;;1.83;1.40;;;;;;;;;;4968808;28;20061;-46
2023/02/22 04:50:18;;;;;;;2.45;1.60;;;;;;;;;;4971212;28;20070;-46
2023/02/22 04:52:44;;;;;;;2.80;1.52;;;;;;;;;;4972762;28;20083;-45
2023/02/22 04:55:11;;;;;;;1.67;1.25;;;;;;;;;;4972323;28;20029;-46
2023/02/22 04:57:37;;;;;;;1.85;1.35;;;;;;;;;;4972754;28;20419;-46
2023/02/22 05:00:04;;;;;;;3.60;1.75;;;;;;;;;;4971357;28;20031;-46
2023/02/22 05:02:30;;;;;;;2.58;1.45;;;;;;;;;;4972006;28;20031;-46
2023/02/22 05:04:56;;;;;;;1.90;1.38;;;;;;;;;;4971402;28;20498;-46
2023/02/22 05:07:22;;;;;;;2.65;1.55;;;;;;;;;;4973151;28;20032;-48
2023/02/22 05:09:48;;;;;;;3.53;1.67;;;;;;;;;;4971826;28;20026;-48
2023/02/22 05:12:14;;;;;;;2.20;1.40;;;;;;;;;;4971846;28;20125;-46
2023/02/22 05:14:40;;;;;;;2.13;1.65;;;;;;;;;;4972501;28;20521;-47
2023/02/22 05:17:06;;;;;;;3.38;1.80;;;;;;;;;;4972274;28;20126;-47
2023/02/22 05:19:32;;;;;;;2.30;1.40;;;;;;;;;;4970107;28;20110;-47
2023/02/22 05:21:59;;;;;;;3.60;1.52;;;;;;;;;;4969960;28;20019;-47
2023/02/22 05:24:25;;;;;;;2.03;1.38;;;;;;;;;;4971907;28;20042;-46
2023/02/22 05:26:52;;;;;;;1.98;1.40;;;;;;;;;;4971087;28;20457;-46
2023/02/22 05:29:18;;;;;;;1.88;1.30;;;;;;;;;;4969743;28;20058;-46
2023/02/22 05:31:44;;;;;;;1.75;1.27;;;;;;;;;;4970211;28;20034;-45
2023/02/22 05:34:10;;;;;;;2.55;1.40;;;;;;;;;;4968029;28;20030;-47
2023/02/22 05:36:35;;;;;;;1.98;1.65;;;;;;;;;;4970286;28;20031;-50
2023/02/22 05:39:02;;;;;;;2.20;1.58;;;;;;;;;;4970321;28;20075;-46
2023/02/22 05:41:28;;;;;;;1.77;1.10;;;;;;;;;;4972224;28;20046;-47
2023/02/22 05:43:54;;;;;;;3.33;1.75;;;;;;;;;;4969852;28;20031;-45
2023/02/22 05:46:20;;;;;;;1.95;1.30;;;;;;;;;;4972337;28;20030;-47
2023/02/22 05:48:45;;;;;;;1.58;1.40;;;;;;;;;;4965860;28;20019;-47
2023/02/22 05:51:12;;;;;;;2.38;1.60;;;;;;;;;;4969642;28;20039;-47
2023/02/22 05:53:38;;;;;;;3.30;1.40;;;;;;;;;;4971470;28;20015;-46
2023/02/22 05:56:04;;;;;;;3.78;1.77;;;;;;;;;;4970181;28;20114;-46
2023/02/22 05:58:30;;;;;;;2.05;1.65;;;;;;;;;;4967581;28;20452;-47
2023/02/22 06:00:56;;;;;;;2.42;1.50;;;;;;;;;;4968812;28;20110;-47
2023/02/22 06:03:22;;;;;;;1.98;1.60;;;;;;;;;;4971757;28;20030;-49
2023/02/22 06:05:48;;;;;;;2.05;1.60;;;;;;;;;;4969649;28;20023;-46
2023/02/22 06:08:14;;;;;;;3.05;1.40;;;;;;;;;;4969109;28;20045;-46
2023/02/22 06:10:40;;;;;;;2.72;1.60;;;;;;;;;;4967501;28;20451;-47
2023/02/22 06:13:06;;;;;;;2.65;1.50;;;;;;;;;;4969816;28;20085;-46
2023/02/22 06:15:32;;;;;;;2.60;1.45;;;;;;;;;;4966909;28;20038;-45
2023/02/22 06:17:59;;;;;;;2.03;1.55;;;;;;;;;;4969030;28;20383;-45
2023/02/22 06:20:25;;;;;;;2.35;1.30;;;;;;;;;;4969376;28;20464;-46
2023/02/22 06:22:52;;;;;;;3.08;1.58;;;;;;;;;;4968902;28;20097;-46
2023/02/22 06:25:20;;;;;;;2.00;1.40;;;;;;;;;;4969350;28;20078;-45
2023/02/22 06:27:46;;;;;;;3.42;1.70;;;;;;;;;;4969294;28;20455;-46
2023/02/22 06:30:14;;;;;;;1.85;1.38;;;;;;;;;;4968768;28;20051;-48
2023/02/22 06:32:40;;;;;;;2.13;1.45;;;;;;;;;;4970591;28;20097;-46
2023/02/22 06:35:07;;;;;;;2.08;1.30;;;;;;;;;;4968342;28;20031;-46
2023/02/22 06:37:33;;;;;;;2.45;1.33;;;;;;;;;;4970148;28;20035;-46
2023/02/22 06:39:59;;;;;;;2.92;1.60;;;;;;;;;;4969694;28;20041;-45
2023/02/22 06:42:25;;;;;;;2.10;1.42;;;;;;;;;;4970920;28;20043;-46
2023/02/22 06:44:51;;;;;;;2.38;1.40;;;;;;;;;;4972573;28;20026;-46
2023/02/22 06:47:17;;;;;;;2.00;1.35;;;;;;;;;;4973284;28;20106;-45
2023/02/22 06:49:43;;;;;;;2.90;1.90;;;;;;;;;;4974899;28;20525;-46
2023/02/22 06:52:09;;;;;;;2.60;1.40;;;;;;;;;;4974638;28;20114;-46
2023/02/22 06:54:36;;;;;;;2.38;1.48;;;;;;;;;;4973535;28;20376;-46
2023/02/22 06:57:02;;;;;;;3.35;1.80;;;;;;;;;;4974348;28;20019;-45
2023/02/22 06:59:28;;;;;;;4.65;1.70;;;;;;;;;;4974768;28;20062;-46
2023/02/22 07:01:54;;;;;;;4.35;1.77;;;;;;;;;;4974001;28;20158;-47
2023/02/22 07:04:20;;;;;;;2.42;1.60;;;;;;;;;;4968924;28;20038;-46
2023/02/22 07:06:47;;;;;;;3.17;1.75;;;;;;;;;;4973029;28;20035;-46
2023/02/22 07:09:13;;;;;;;4.45;1.95;;;;;;;;;;4974393;28;20022;-47
2023/02/22 07:11:39;;;;;;;3.08;1.58;;;;;;;;;;4969108;28;20023;-45
2023/02/22 07:14:06;;;;;;;7.10;1.58;;;;;;;;;;4969569;28;20477;-46
2023/02/22 07:16:32;;;;;;;5.30;1.90;;;;;;;;;;4975396;28;20022;-46
2023/02/22 07:18:59;;;;;;;3.80;2.08;;;;;;;;;;4972338;28;20038;-48
2023/02/22 07:21:25;;;;;;;2.65;1.65;;;;;;;;;;4974968;28;20034;-47
2023/02/22 07:23:52;;;;;;;2.90;1.40;;;;;;;;;;4969072;28;20058;-46
2023/02/22 07:26:18;;;;;;;4.78;1.52;;;;;;;;;;4974814;28;20034;-46
2023/02/22 07:28:44;;;;;;;3.25;1.80;;;;;;;;;;4974399;28;20059;-47
2023/02/22 07:31:10;;;;;;;4.75;1.73;;;;;;;;;;4973009;28;20070;-46
2023/02/22 07:33:36;;;;;;;4.85;1.67;;;;;;;;;;4973274;28;20701;-46
2023/02/22 07:36:02;;;;;;;5.80;1.98;;;;;;;;;;4973352;28;20026;-45
2023/02/22 07:38:28;;;;;;;4.88;1.67;;;;;;;;;;4974258;28;20030;-46
2023/02/22 07:40:56;;;;;;;3.45;2.05;;;;;;;;;;4967519;28;20030;-47
2023/02/22 07:43:23;;;;;;;5.47;1.80;;;;;;;;;;4971573;28;20027;-46
2023/02/22 07:45:50;;;;;;;4.13;1.80;;;;;;;;;;4972840;28;20035;-46
2023/02/22 07:48:17;;;;;;;4.07;2.47;;;;;;;;;;4974798;28;20031;-47
2023/02/22 07:50:44;;;;;;;33.17;3.15;;;;;;;;;;4973701;28;20073;-46
2023/02/22 07:53:17;;;;;;;2.53;1.73;;;;;;;;;;4972843;28;20037;-47
2023/02/22 07:55:44;;;;;;;6.07;2.22;;;;;;;;;;4973866;28;20030;-46
2023/02/22 07:58:13;;;;;;;3.92;2.20;;;;;;;;;;4973951;28;20041;-46
2023/02/22 08:00:40;;;;;;;4.25;1.88;;;;;;;;;;4964642;28;20460;-50
2023/02/22 08:03:11;;;;;;;5.40;2.03;;;;;;;;;;4968369;28;20405;-48
2023/02/22 08:05:38;;;;;;;3.47;1.42;;;;;;;;;;4972702;28;20031;-46
2023/02/22 08:08:04;;;;;;;2.92;1.88;;;;;;;;;;4982785;28;20062;-50
2023/02/22 08:10:31;;;;;;;4.65;1.90;;;;;;;;;;4973688;28;20388;-47
2023/02/22 08:12:57;;;;;;;2.95;1.88;;;;;;;;;;4972687;28;20106;-47
2023/02/22 08:15:33;;;;;;;6.70;2.00;;;;;;;;;;4974128;28;20026;-48
2023/02/22 08:18:00;;;;;;;5.97;1.92;;;;;;;;;;4973029;28;20043;-51
2023/02/22 08:20:27;;;;;;;3.60;1.70;;;;;;;;;;4972539;28;20042;-49
2023/02/22 08:22:53;;;;;;;4.70;1.60;;;;;;;;;;4971730;28;20026;-49
2023/02/22 08:25:20;;;;;;;4.20;2.47;;;;;;;;;;4971399;28;20042;-49
2023/02/22 08:27:46;;;;;;;3.50;1.95;;;;;;;;;;4972866;28;20499;-45
2023/02/22 08:30:17;;;;;;;6.65;2.30;;;;;;;;;;4971701;28;20027;-47
2023/02/22 08:32:44;;;;;;;4.03;2.30;;;;;;;;;;4973200;28;20138;-49
2023/02/22 08:35:12;;;;;;;4.55;1.85;;;;;;;;;;4972568;28;20031;-48
2023/02/22 08:37:41;;;;;;;9.70;2.08;;;;;;;;;;4972651;28;20388;-50
2023/02/22 08:40:07;;;;;;;3.38;2.00;;;;;;;;;;4972130;28;20050;-46
2023/02/22 08:42:33;;;;;;;6.15;2.10;;;;;;;;;;4971482;28;20054;-46
2023/02/22 08:44:59;;;;;;;5.03;1.52;;;;;;;;;;4971925;28;20031;-45
2023/02/22 08:47:25;;;;;;;4.25;2.30;;;;;;;;;;4970905;28;20030;-47
2023/02/22 08:49:51;;;;;;;5.85;2.33;;;;;;;;;;4970588;28;20033;-46
2023/02/22 08:52:17;;;;;;;3.83;2.10;;;;;;;;;;4973104;28;20035;-46
2023/02/22 08:54:45;;;;;;;6.25;2.63;;;;;;;;;;4971300;28;20027;-46
2023/02/22 08:57:11;;;;;;;5.20;1.92;;;;;;;;;;4972388;28;20089;-49
2023/02/22 08:59:37;;;;;;;3.30;1.75;;;;;;;;;;4965380;28;20097;-52
2023/02/22 09:02:04;;;;;;;6.22;2.80;;;;;;;;;;4971875;28;20038;-48
2023/02/22 09:04:30;;;;;;;3.97;1.95;;;;;;;;;;4971874;28;20026;-48
2023/02/22 09:06:56;;;;;;;4.78;2.58;;;;;;;;;;4971714;28;20106;-51
2023/02/22 09:09:22;;;;;;;6.20;2.25;;;;;;;;;;4971393;28;20034;-48
2023/02/22 09:11:48;;;;;;;4.53;1.85;;;;;;;;;;4970967;28;20085;-44
2023/02/22 09:14:15;;;;;;;3.83;2.10;;;;;;;;;;4953380;29;20019;-46
2023/02/22 09:16:41;;;;;;;3.78;2.03;;;;;;;;;;4953647;29;20022;-49
2023/02/22 09:19:07;;;;;;;4.20;2.20;;;;;;;;;;4948193;29;20528;-51
2023/02/22 09:21:33;;;;;;;3.58;1.80;;;;;;;;;;4952626;29;20071;-49
2023/02/22 09:24:07;;;;;;;5.28;2.03;;;;;;;;;;4951892;29;20737;-47
2023/02/22 09:26:33;;;;;;;4.20;2.13;;;;;;;;;;4953438;29;20035;-50
2023/02/22 09:28:59;;;;;;;4.35;1.83;;;;;;;;;;4950526;29;20031;-52
2023/02/22 09:31:24;;;;;;;5.85;1.95;;;;;;;;;;4953045;29;20077;-48
2023/02/22 09:33:50;;;;;;;5.07;2.53;;;;;;;;;;4951634;29;20035;-50
2023/02/22 09:36:17;;;;;;;6.43;2.10;;;;;;;;;;4952651;29;20079;-50
2023/02/22 09:38:43;;;;;;;5.57;2.10;;;;;;;;;;4951712;29;20055;-45
2023/02/22 09:41:18;;;;;;;4.32;1.90;;;;;;;;;;4952421;28;20074;-47
2023/02/22 09:44:05;;;;;;;3.50;2.15;;;;;;;;;;4952955;29;20055;-46
2023/02/22 09:46:33;;;;;;;5.78;2.08;;;;;;;;;;4936675;29;20090;-50
2023/02/22 09:49:14;;;;;;;4.63;2.47;;;;;;;;;;4949515;29;20432;-49
2023/02/22 09:51:43;;;;;;;7.03;2.00;;;;;;;;;;4949210;29;20110;-46
2023/02/22 09:54:13;;;;;;;8.55;2.47;;;;;;;;;;4949474;29;20419;-46
2023/02/22 09:56:40;;;;;;;5.32;2.28;;;;;;;;;;4952503;28;20111;-47
2023/02/22 09:59:07;;;;;;;3.97;1.75;;;;;;;;;;4954271;28;20106;-51
2023/02/22 10:01:38;;;;;;;3.88;2.13;;;;;;;;;;4949660;29;20075;-50
2023/02/22 10:04:22;;;;;;;4.97;2.45;;;;;;;;;;4946883;29;20043;-48
2023/02/22 10:07:08;;;;;;;5.60;2.13;;;;;;;;;;4952495;29;20027;-53
2023/02/22 10:09:37;;;;;;;5.35;2.60;;;;;;;;;;4922102;29;20035;-49
2023/02/22 10:12:08;;;;;;;4.70;2.40;;;;;;;;;;4951668;28;20075;-51
2023/02/22 10:14:47;;;;;;;5.63;2.65;;;;;;;;;;4970097;28;20034;-49
2023/02/22 10:17:13;;;;;;;4.30;2.53;;;;;;;;;;4971111;28;20074;-48
2023/02/22 10:19:44;;;;;;;6.38;2.15;;;;;;;;;;4974253;28;20026;-48
2023/02/22 10:22:16;;;;;;;4.75;2.30;;;;;;;;;;4974872;28;20035;-49
2023/02/22 10:24:42;;;;;;;;;;;;;;;;;;4975141;28;20388;-49
2023/02/22 10:27:21;;;;;;;7.85;3.00;;;;;;;;;;4974508;28;19918;-47
2023/02/22 10:29:54;;;;;;;5.57;2.42;;;;;;;;;;4973993;28;20129;-49
2023/02/22 10:32:26;;;;;;;8.10;2.33;;;;;;;;;;4975488;28;20038;-49
2023/02/22 10:34:53;;;;;;;5.45;2.53;;;;;;;;;;4974286;28;20023;-50
2023/02/22 10:37:27;;;;;;;5.22;2.15;;;;;;;;;;4974611;28;20034;-50
2023/02/22 10:39:56;;;;;;;4.88;2.65;;;;;;;;;;4971173;28;20035;-53
2023/02/22 10:42:25;;;;;;;3.30;2.28;;;;;;;;;;4975173;28;20066;-50
2023/02/22 10:44:51;;;;;;;4.90;2.05;;;;;;;;;;4973877;28;20027;-48
2023/02/22 10:47:18;;;;;;;4.32;2.33;;;;;;;;;;4974281;28;20029;-50
2023/02/22 10:49:46;;;;;;;5.60;2.53;;;;;;;;;;4974008;28;20536;-49
2023/02/22 10:52:14;;;;;;;3.50;1.95;;;;;;;;;;4975178;28;20097;-48
2023/02/22 10:54:42;;;;;;;4.28;2.40;;;;;;;;;;4974857;28;20031;-51
2023/02/22 10:57:09;;;;;;;5.43;2.45;;;;;;;;;;4973233;28;20511;-48
2023/02/22 10:59:38;;;;;;;5.95;2.03;;;;;;;;;;4974201;28;20039;-51
2023/02/22 11:02:27;;;;;;;5.55;1.98;;;;;;;;;;4972682;28;20718;-51
2023/02/22 11:04:55;;;;;;;3.03;2.15;;;;;;;;;;4966596;28;20047;-48
2023/02/22 11:07:23;;;;;;;4.72;2.47;;;;;;;;;;4975369;28;20023;-48
2023/02/22 11:09:50;;;;;;;4.25;2.47;;;;;;;;;;4973880;28;20015;-50
2023/02/22 11:12:17;;;;;;;3.92;2.30;;;;;;;;;;4973703;28;20500;-50
2023/02/22 11:14:43;;;;;;;7.50;2.28;;;;;;;;;;4972580;28;20471;-47
2023/02/22 11:17:12;;;;;;;7.07;2.85;;;;;;;;;;4974158;28;20035;-49
2023/02/22 11:19:45;;;;;;;4.95;2.45;;;;;;;;;;4976312;28;20041;-48
2023/02/22 11:22:13;;;;;;;2.75;2.05;;;;;;;;;;4970750;28;20085;-49
2023/02/22 11:24:54;;;;;;;4.55;2.20;;;;;;;;;;4973717;28;20531;-51
2023/02/22 11:27:27;;;;;;;5.25;2.17;;;;;;;;;;4973647;28;20530;-49
2023/02/22 11:29:53;;;;;;;4.72;2.20;;;;;;;;;;4972595;28;20031;-51
2023/02/22 11:32:21;;;;;;;4.15;2.30;;;;;;;;;;4965949;28;20485;-50
2023/02/22 11:34:48;;;;;;;3.35;1.85;;;;;;;;;;4972356;28;20495;-47
2023/02/22 11:37:28;;;;;;;3.63;1.83;;;;;;;;;;4972137;28;20058;-52
2023/02/22 11:40:06;;;;;;;8.68;2.35;;;;;;;;;;4971517;28;20082;-49
2023/02/22 11:42:32;;;;;;;5.20;2.20;;;;;;;;;;4971840;28;20027;-52
2023/02/22 11:45:13;;;;;;;3.10;2.08;;;;;;;;;;4971922;28;20484;-49
2023/02/22 11:47:57;;;;;;;4.15;1.70;;;;;;;;;;4972983;28;20027;-50
2023/02/22 11:50:42;;;;;;;4.15;2.10;;;;;;;;;;4965004;28;20062;-51
2023/02/22 11:53:20;;;;;;;3.30;1.83;;;;;;;;;;4970960;28;20497;-50
2023/02/22 11:55:49;;;;;;;3.70;1.85;;;;;;;;;;4972910;28;20037;-50
2023/02/22 11:58:35;;;;;;;3.80;2.38;;;;;;;;;;4973692;28;20035;-49
2023/02/22 12:01:08;;;;;;;6.05;2.00;;;;;;;;;;4969059;28;20046;-51
2023/02/22 12:03:57;;;;;;;4.80;2.08;;;;;;;;;;4965252;28;20023;-50
2023/02/22 12:06:41;;;;;;;4.45;2.00;;;;;;;;;;4970695;28;20034;-49
2023/02/22 12:09:26;;;;;;;4.03;1.85;;;;;;;;;;4972469;28;20521;-48
2023/02/22 12:12:16;;;;;;;3.45;2.00;;;;;;;;;;4971846;28;20031;-48
2023/02/22 12:14:54;;;;;;;3.83;1.90;;;;;;;;;;4973991;28;20041;-47
2023/02/22 12:17:39;;;;;;;3.20;1.98;;;;;;;;;;4973859;28;20031;-49
2023/02/22 12:20:13;;;;;;;3.72;1.58;;;;;;;;;;4972250;28;20054;-48
2023/02/22 12:22:53;;;;;;;5.28;2.45;;;;;;;;;;4973365;28;20038;-48
2023/02/22 12:25:25;;;;;;;4.03;2.40;;;;;;;;;;4973177;28;20070;-49
2023/02/22 12:27:57;;;;;;;3.10;2.15;;;;;;;;;;4972338;28;20041;-48
2023/02/22 12:30:27;;;;;;;4.47;1.98;;;;;;;;;;4972366;28;20060;-47
2023/02/22 12:32:55;;;;;;;4.72;2.30;;;;;;;;;;4972392;28;20035;-48
2023/02/22 12:35:28;;;;;;;5.35;1.95;;;;;;;;;;4973334;28;20117;-50
2023/02/22 12:37:54;;;;;;;5.32;2.40;;;;;;;;;;4973445;28;20019;-52
2023/02/22 12:40:25;;;;;;;3.20;1.50;;;;;;;;;;4972591;28;20392;-48
2023/02/22 12:42:53;;;;;;;2.65;1.70;;;;;;;;;;4971370;28;20042;-47
2023/02/22 12:45:40;;;;;;;3.22;2.15;;;;;;;;;;4972119;28;20158;-48
2023/02/22 12:48:08;;;;;;;2.30;1.77;;;;;;;;;;4928738;28;20350;-48
2023/02/22 12:50:36;;;;;;;2.80;1.65;;;;;;;;;;4973297;28;20054;-48
2023/02/22 12:53:14;;;;;;;2.30;1.50;;;;;;;;;;4973060;28;20023;-48
2023/02/22 12:55:45;;;;;;;4.07;2.10;;;;;;;;;;4973425;28;20023;-48
2023/02/22 12:58:24;;;;;;;3.15;1.98;;;;;;;;;;4972417;28;20030;-49
2023/02/22 13:00:55;;;;;;;4.88;2.33;;;;;;;;;;4972181;28;20026;-52
2023/02/22 13:03:27;;;;;;;3.20;1.40;;;;;;;;;;4967972;28;20031;-48
2023/02/22 13:06:04;;;;;;;2.92;1.55;;;;;;;;;;4971806;28;20026;-48
2023/02/22 13:08:51;;;;;;;3.85;1.55;;;;;;;;;;4964250;28;20040;-49
2023/02/22 13:11:17;;;;;;;3.15;2.03;;;;;;;;;;4971230;28;20484;-51
2023/02/22 13:14:12;;;;;;;2.13;1.52;;;;;;;;;;4972316;28;20046;-50
2023/02/22 13:16:53;;;;;;;3.30;1.83;;;;;;;;;;4964192;28;20431;-48
2023/02/22 13:19:22;;;;;;;2.95;1.73;;;;;;;;;;4971360;28;20106;-49
2023/02/22 13:21:54;;;;;;;2.58;1.55;;;;;;;;;;4967035;28;20089;-49
2023/02/22 13:24:26;;;;;;;3.53;1.85;;;;;;;;;;4972487;28;20038;-48
2023/02/22 13:26:52;;;;;;;;;;;;;;;;;;4972239;28;20093;-48
2023/02/22 13:29:27;;;;;;;2.60;1.70;;;;;;;;;;4972542;28;20367;-48
2023/02/22 13:32:08;;;;;;;3.53;1.58;;;;;;;;;;4970410;28;20499;-49
2023/02/22 13:34:34;;;;;;;3.15;1.63;;;;;;;;;;4972622;28;20140;-50
2023/02/22 13:37:00;;;;;;;1.73;1.20;;;;;;;;;;4971673;28;20054;-49
2023/02/22 13:39:53;;;;;;;2.20;1.27;;;;;;;;;;4972297;28;20034;-50
2023/02/22 13:42:25;;;;;;;4.05;1.60;;;;;;;;;;4972648;28;20034;-52
2023/02/22 13:44:58;;;;;;;6.30;1.90;;;;;;;;;;4970036;28;20018;-52
2023/02/22 13:47:32;;;;;;;4.00;2.00;;;;;;;;;;4972563;28;20052;-52
2023/02/22 13:50:19;;;;;;;3.92;1.85;;;;;;;;;;4971174;28;20023;-48
2023/02/22 13:52:48;;;;;;;2.67;1.65;;;;;;;;;;4971771;28;20400;-48
2023/02/22 13:55:26;;;;;;;3.53;1.77;;;;;;;;;;4972125;28;20085;-50
2023/02/22 13:57:59;;;;;;;4.00;2.00;;;;;;;;;;4967655;28;20440;-47
2023/02/22 14:00:24;;;;;;;;;;;;;;;;;;4972779;28;20022;-47
2023/02/22 14:02:53;;;;;;;2.97;2.03;;;;;;;;;;4977787;28;19906;-47
2023/02/22 14:05:35;;;;;;;3.38;1.75;;;;;;;;;;4972416;28;20031;-48
2023/02/22 14:08:01;;;;;;;2.67;1.77;;;;;;;;;;4969939;28;20035;-50
2023/02/22 14:10:45;;;;;;;3.70;1.70;;;;;;;;;;4971559;28;20105;-48
2023/02/22 14:13:12;;;;;;;1.90;1.23;;;;;;;;;;4972293;28;20612;-49
2023/02/22 14:16:04;;;;;;;2.83;1.50;;;;;;;;;;4972218;28;20030;-47
2023/02/22 14:18:50;;;;;;;2.15;1.40;;;;;;;;;;4970908;28;20059;-49
2023/02/22 14:21:19;;;;;;;2.92;1.52;;;;;;;;;;4972682;28;20582;-48
2023/02/22 14:23:55;;;;;;;2.00;1.65;;;;;;;;;;4972145;28;20437;-48
2023/02/22 14:26:27;;;;;;;2.38;1.42;;;;;;;;;;4966412;28;20373;-47
2023/02/22 14:28:55;;;;;;;1.83;1.40;;;;;;;;;;4970139;28;20031;-47
2023/02/22 14:31:25;;;;;;;3.63;1.70;;;;;;;;;;4971959;28;20031;-48
2023/02/22 14:34:06;;;;;;;2.25;1.40;;;;;;;;;;4969778;28;20038;-49
2023/02/22 14:36:52;;;;;;;2.83;1.65;;;;;;;;;;4970266;28;20713;-46
2023/02/22 14:39:24;;;;;;;4.40;1.35;;;;;;;;;;4970157;28;20510;-50
2023/02/22 14:41:52;;;;;;;;;;;;;;;;;;4970720;28;20039;-48
2023/02/22 14:44:21;;;;;;;2.92;1.15;;;;;;;;;;4971651;28;20012;-48
2023/02/22 14:46:48;;;;;;;3.80;1.55;;;;;;;;;;4971256;28;20105;-50
2023/02/22 14:49:17;;;;;;;3.35;1.65;;;;;;;;;;4970808;28;20074;-49
2023/02/22 14:51:48;;;;;;;5.10;1.67;;;;;;;;;;4970231;28;20030;-51
2023/02/22 14:54:14;;;;;;;4.47;1.77;;;;;;;;;;4967928;28;20027;-48
2023/02/22 14:56:47;;;;;;;8.07;2.30;;;;;;;;;;4970976;28;20106;-47
2023/02/22 14:59:18;;;;;;;17.08;5.85;;;;;;;;;;4970325;28;20053;-46